Time;durP1;ratioP1;P1;durP2;ratioP2;P2;SDS_P1;SDS_P2;PMS_P1;PMS_P2;Temp;Humidity;BMP_temperature;BMP_pressure;BME280_temperature;BME280_humidity;BME280_pressure;Samples;Min_cycle;Max_cycle;Signal;HPM_P1;HPM_P2
2022/09/09 00:01:25;;;;;;;;;;;13.60;99.90;;;;;;5088989;28;19946;-60
2022/09/09 00:04:16;;;;;;;;;;;13.60;99.90;;;;;;5083778;28;20399;-60
2022/09/09 00:06:46;;;;;;;;;;;13.60;99.90;;;;;;5090869;28;19928;-60
2022/09/09 00:09:18;;;;;;;;;;;13.60;99.90;;;;;;5104513;28;19935;-60
2022/09/09 00:11:47;;;;;;;;;;;13.60;99.90;;;;;;5101998;28;19924;-60
2022/09/09 00:14:23;;;;;;;;;;;13.50;99.90;;;;;;5097275;28;20405;-61
2022/09/09 00:16:54;;;;;;;;;;;13.50;99.90;;;;;;5105765;28;19931;-60
2022/09/09 00:19:28;;;;;;;;;;;13.50;99.90;;;;;;5110937;28;20306;-60
2022/09/09 00:21:57;;;;;;;;;;;13.50;99.90;;;;;;5109757;28;20407;-59
2022/09/09 00:24:32;;;;;;;;;;;13.50;99.90;;;;;;5101550;27;19934;-59
2022/09/09 00:27:06;;;;;;;;;;;13.60;99.90;;;;;;5111248;28;19927;-59
2022/09/09 00:29:45;;;;;;;;;;;13.60;99.90;;;;;;5110957;28;19959;-59
2022/09/09 00:32:16;;;;;;;;;;;13.60;99.90;;;;;;5073829;28;20344;-59
2022/09/09 00:35:03;;;;;;;;;;;13.60;99.90;;;;;;5108821;27;19928;-59
2022/09/09 00:37:32;;;;;;;;;;;13.60;99.90;;;;;;5097941;28;19935;-59
2022/09/09 00:40:02;;;;;;;;;;;13.60;99.90;;;;;;5091306;28;20013;-59
2022/09/09 00:42:40;;;;;;;;;;;13.70;99.90;;;;;;5085741;28;19928;-58
2022/09/09 00:45:19;;;;;;;;;;;13.70;99.90;;;;;;5106128;28;20387;-59
2022/09/09 00:47:50;;;;;;;;;;;13.70;99.90;;;;;;5110612;28;19935;-59
2022/09/09 00:50:29;;;;;;;;;;;13.70;99.90;;;;;;5092749;28;19935;-60
2022/09/09 00:53:17;;;;;;;;;;;13.70;99.90;;;;;;5092095;27;19923;-59
2022/09/09 00:55:50;;;;;;;;;;;13.70;99.90;;;;;;5099373;28;19935;-59
2022/09/09 00:58:17;;;;;;;;;;;13.70;99.90;;;;;;5098159;27;19924;-60
2022/09/09 01:00:55;;;;;;;;;;;13.70;99.90;;;;;;5118690;27;19931;-59
2022/09/09 01:03:30;;;;;;;;;;;13.70;99.90;;;;;;5105612;27;19947;-59
2022/09/09 01:06:17;;;;;;;;;;;13.70;99.90;;;;;;5097262;28;19923;-59
2022/09/09 01:08:50;;;;;;;;;;;13.80;99.90;;;;;;5100821;28;19932;-59
2022/09/09 01:11:21;;;;;;;;;;;13.80;99.90;;;;;;5107742;28;20271;-60
2022/09/09 01:13:52;;;;;;;;;;;13.80;99.90;;;;;;5088207;28;19924;-60
2022/09/09 01:16:20;;;;;;;;;;;13.80;99.90;;;;;;5090295;28;20283;-59
2022/09/09 01:18:52;;;;;;;;;;;13.80;99.90;;;;;;5110636;28;19924;-60
2022/09/09 01:21:20;;;;;;;;;;;13.90;99.90;;;;;;5109024;28;20298;-59
2022/09/09 01:23:48;;;;;;;;;;;13.90;99.90;;;;;;5088800;28;20294;-58
2022/09/09 01:26:37;;;;;;;;;;;13.90;99.90;;;;;;5102873;28;19931;-59
2022/09/09 01:29:13;;;;;;;;;;;13.90;99.90;;;;;;5104279;27;19927;-60
2022/09/09 01:31:52;;;;;;;;;;;13.90;99.90;;;;;;5090643;28;19960;-60
2022/09/09 01:34:21;;;;;;;;;;;13.90;99.90;;;;;;5092148;28;19993;-59
2022/09/09 01:36:52;;;;;;;;;;;13.90;99.90;;;;;;5094777;28;19923;-59
2022/09/09 01:39:20;;;;;;;;;;;13.90;99.90;;;;;;5118847;27;20013;-59
2022/09/09 01:41:55;;;;;;;;;;;14.00;99.90;;;;;;5076832;28;19946;-60
2022/09/09 01:44:24;;;;;;;;;;;14.00;99.90;;;;;;5110854;28;19923;-60
2022/09/09 01:46:51;;;;;;;;;;;14.00;99.90;;;;;;5076573;28;19935;-60
2022/09/09 01:49:21;;;;;;;;;;;14.00;99.90;;;;;;5091895;28;19924;-60
2022/09/09 01:51:51;;;;;;;;;;;14.10;99.90;;;;;;5111648;28;19923;-59
2022/09/09 01:54:25;;;;;;;;;;;14.10;99.90;;;;;;5073524;28;20299;-59
2022/09/09 01:57:07;;;;;;;;;;;14.10;99.90;;;;;;5092328;28;19931;-60
2022/09/09 01:59:47;;;;;;;;;;;14.10;99.90;;;;;;5091861;27;19924;-60
2022/09/09 02:02:19;;;;;;;;;;;14.20;99.90;;;;;;5115914;27;19927;-60
2022/09/09 02:05:13;;;;;;;;;;;14.20;99.90;;;;;;5113044;27;19924;-60
2022/09/09 02:07:42;;;;;;;;;;;14.20;99.90;;;;;;5084532;28;19927;-60
2022/09/09 02:10:42;;;;;;;;;;;14.20;99.90;;;;;;5095507;28;19931;-60
2022/09/09 02:13:17;;;;;;;;;;;14.30;99.90;;;;;;5095255;28;19932;-61
2022/09/09 02:15:45;;;;;;;;;;;14.30;99.90;;;;;;5095327;28;20449;-61
2022/09/09 02:18:13;;;;;;;;;;;14.30;99.90;;;;;;5113318;28;19928;-60
2022/09/09 02:20:43;;;;;;;;;;;14.30;99.90;;;;;;5078277;28;19936;-59
2022/09/09 02:23:11;;;;;;;;;;;14.30;99.90;;;;;;5095120;28;19994;-60
2022/09/09 02:25:40;;;;;;;;;;;14.40;99.90;;;;;;5095179;28;19924;-59
2022/09/09 02:28:21;;;;;;;;;;;14.30;99.90;;;;;;5095317;28;19924;-59
2022/09/09 02:30:58;;;;;;;;;;;14.30;99.90;;;;;;5114182;27;19923;-59
2022/09/09 02:33:53;;;;;;;;;;;14.30;99.90;;;;;;5115363;27;19928;-60
2022/09/09 02:36:22;;;;;;;;;;;14.40;99.90;;;;;;5098218;27;20362;-59
2022/09/09 02:38:52;;;;;;;;;;;14.30;99.90;;;;;;5115360;27;19924;-59
2022/09/09 02:41:25;;;;;;;;;;;14.40;99.90;;;;;;5114376;27;19923;-60
2022/09/09 02:43:54;;;;;;;;;;;14.30;99.90;;;;;;5115303;27;19924;-59
2022/09/09 02:46:42;;;;;;;;;;;14.40;99.90;;;;;;5115121;27;19923;-59
2022/09/09 02:49:16;;;;;;;;;;;14.40;99.90;;;;;;5115145;27;19923;-59
2022/09/09 02:51:46;;;;;;;;;;;14.40;99.90;;;;;;5115213;27;19924;-58
2022/09/09 02:54:14;;;;;;;;;;;14.50;99.90;;;;;;5113968;27;20392;-59
2022/09/09 02:56:43;;;;;;;;;;;14.50;99.90;;;;;;5115259;27;19930;-59
2022/09/09 02:59:12;;;;;;;;;;;14.50;99.90;;;;;;5114996;27;20373;-59
2022/09/09 03:01:41;;;;;;;;;;;14.50;99.90;;;;;;5081658;27;19923;-59
2022/09/09 03:04:09;;;;;;;;;;;14.50;99.90;;;;;;5115173;27;20301;-60
2022/09/09 03:06:38;;;;;;;;;;;14.60;99.90;;;;;;5115128;27;19931;-60
2022/09/09 03:09:16;;;;;;;;;;;14.50;99.90;;;;;;5114858;27;20271;-63
2022/09/09 03:11:43;;;;;;;;;;;14.60;99.90;;;;;;5114929;27;20407;-60
2022/09/09 03:14:11;;;;;;;;;;;14.60;99.90;;;;;;5114865;27;19923;-60
2022/09/09 03:16:40;;;;;;;;;;;14.60;99.90;;;;;;5114389;27;19928;-61
2022/09/09 03:19:07;;;;;;;;;;;14.60;99.90;;;;;;5114592;28;20286;-59
2022/09/09 03:21:35;;;;;;;;;;;14.60;99.90;;;;;;5113764;27;19930;-59
2022/09/09 03:24:03;;;;;;;;;;;14.60;99.90;;;;;;5113529;27;20286;-60
2022/09/09 03:26:31;;;;;;;;;;;14.60;99.90;;;;;;5114692;28;20294;-59
2022/09/09 03:29:00;;;;;;;;;;;14.60;99.90;;;;;;5114559;28;19923;-60
2022/09/09 03:31:30;;;;;;;;;;;14.60;99.90;;;;;;5114475;28;19924;-59
2022/09/09 03:33:58;;;;;;;;;;;14.60;99.90;;;;;;5114497;28;19924;-59
2022/09/09 03:36:30;;;;;;;;;;;14.60;99.90;;;;;;5114553;28;20349;-59
2022/09/09 03:38:57;;;;;;;;;;;14.60;99.90;;;;;;5114355;28;19924;-60
2022/09/09 03:41:28;;;;;;;;;;;14.60;99.90;;;;;;5114459;28;19923;-59
2022/09/09 03:43:56;;;;;;;;;;;14.60;99.90;;;;;;5114531;28;19924;-59
2022/09/09 03:46:25;;;;;;;;;;;14.60;99.90;;;;;;5097797;28;19939;-59
2022/09/09 03:48:54;;;;;;;;;;;14.60;99.90;;;;;;5097318;28;19923;-60
2022/09/09 03:51:21;;;;;;;;;;;14.60;99.90;;;;;;5115053;27;19923;-59
2022/09/09 03:53:50;;;;;;;;;;;14.60;99.90;;;;;;5118386;27;19931;-59
2022/09/09 03:56:17;;;;;;;;;;;14.60;99.90;;;;;;5136920;27;19923;-59
2022/09/09 03:58:45;;;;;;;;;;;14.60;99.90;;;;;;5118251;27;19930;-60
2022/09/09 04:01:13;;;;;;;;;;;14.60;99.90;;;;;;5117069;27;20299;-60
2022/09/09 04:03:43;;;;;;;;;;;14.60;99.90;;;;;;5097631;28;19923;-59
2022/09/09 04:06:13;;;;;;;;;;;14.50;99.90;;;;;;5097918;28;19934;-60
2022/09/09 04:08:42;;;;;;;;;;;14.60;99.90;;;;;;5097663;28;19989;-60
2022/09/09 04:11:09;;;;;;;;;;;14.50;99.90;;;;;;5116106;28;19938;-59
2022/09/09 04:13:39;;;;;;;;;;;14.50;99.90;;;;;;5131823;27;20425;-59
2022/09/09 04:16:10;;;;;;;;;;;14.50;99.90;;;;;;5097738;28;19924;-59
2022/09/09 04:18:38;;;;;;;;;;;14.50;99.90;;;;;;5097427;28;19935;-60
2022/09/09 04:21:07;;;;;;;;;;;14.50;99.90;;;;;;5097610;28;20409;-59
2022/09/09 04:23:35;;;;;;;;;;;14.50;99.90;;;;;;5097551;28;19931;-59
2022/09/09 04:26:04;;;;;;;;;;;14.50;99.90;;;;;;5115762;28;19942;-60
2022/09/09 04:28:34;;;;;;;;;;;14.50;99.90;;;;;;5097480;28;19930;-59
2022/09/09 04:31:06;;;;;;;;;;;14.50;99.90;;;;;;5117676;27;19923;-60
2022/09/09 04:33:34;;;;;;;;;;;14.50;99.90;;;;;;5135403;27;20394;-59
2022/09/09 04:36:07;;;;;;;;;;;14.50;99.90;;;;;;5117801;27;20390;-59
2022/09/09 04:38:35;;;;;;;;;;;14.50;99.90;;;;;;5117695;27;19924;-59
2022/09/09 04:41:04;;;;;;;;;;;14.40;99.90;;;;;;5117815;27;20424;-60
2022/09/09 04:43:34;;;;;;;;;;;14.40;99.90;;;;;;5117300;27;19935;-60
2022/09/09 04:46:04;;;;;;;;;;;14.40;99.90;;;;;;5117633;27;19923;-60
2022/09/09 04:48:32;;;;;;;;;;;14.40;99.90;;;;;;5087209;28;20287;-60
2022/09/09 04:51:02;;;;;;;;;;;14.40;99.90;;;;;;5077170;28;19924;-60
2022/09/09 04:53:31;;;;;;;;;;;14.40;99.90;;;;;;5093515;28;19949;-60
2022/09/09 04:56:06;;;;;;;;;;;14.40;99.90;;;;;;5093551;28;19924;-60
2022/09/09 04:58:39;;;;;;;;;;;14.40;99.90;;;;;;5093956;27;19924;-60
2022/09/09 05:01:08;;;;;;;;;;;14.40;99.90;;;;;;5114153;27;19928;-59
2022/09/09 05:03:37;;;;;;;;;;;14.40;99.90;;;;;;5066923;28;19928;-60
2022/09/09 05:06:09;;;;;;;;;;;14.40;99.90;;;;;;5069703;28;19931;-60
2022/09/09 05:08:38;;;;;;;;;;;14.40;99.90;;;;;;5086206;28;20295;-60
2022/09/09 05:11:20;;;;;;;;;;;14.40;99.90;;;;;;5089739;28;19931;-60
2022/09/09 05:13:47;;;;;;;;;;;14.40;99.90;;;;;;5089240;28;20371;-60
2022/09/09 05:16:15;;;;;;;;;;;14.40;99.90;;;;;;5090862;28;19935;-60
2022/09/09 05:18:44;;;;;;;;;;;14.40;99.90;;;;;;5092811;28;19924;-60
2022/09/09 05:21:12;;;;;;;;;;;14.40;99.90;;;;;;5092680;28;19937;-60
2022/09/09 05:23:40;;;;;;;;;;;14.40;99.90;;;;;;5100704;28;19924;-59
2022/09/09 05:26:13;;;;;;;;;;;14.50;99.90;;;;;;5092760;28;19947;-60
2022/09/09 05:28:46;;;;;;;;;;;14.40;99.90;;;;;;5094442;27;19930;-59
2022/09/09 05:31:14;;;;;;;;;;;14.50;99.90;;;;;;5130235;27;20366;-59
2022/09/09 05:33:45;;;;;;;;;;;14.40;99.90;;;;;;5102630;28;20402;-59
2022/09/09 05:36:15;;;;;;;;;;;14.40;99.90;;;;;;5109953;28;19927;-59
2022/09/09 05:38:43;;;;;;;;;;;14.40;99.90;;;;;;5078532;28;19928;-58
2022/09/09 05:41:11;;;;;;;;;;;14.40;99.90;;;;;;5071327;28;19994;-60
2022/09/09 05:43:38;;;;;;;;;;;14.40;99.90;;;;;;5118409;27;19934;-59
2022/09/09 05:46:07;;;;;;;;;;;14.40;99.90;;;;;;5110567;27;19930;-59
2022/09/09 05:48:37;;;;;;;;;;;14.40;99.90;;;;;;5099108;28;19935;-59
2022/09/09 05:51:06;;;;;;;;;;;14.30;99.90;;;;;;5092542;28;19947;-60
2022/09/09 05:53:35;;;;;;;;;;;14.30;99.90;;;;;;5091956;28;19951;-59
2022/09/09 05:56:04;;;;;;;;;;;14.30;99.90;;;;;;5091811;28;19924;-59
2022/09/09 05:58:33;;;;;;;;;;;14.30;99.90;;;;;;5091773;28;19928;-61
2022/09/09 06:01:03;;;;;;;;;;;14.30;99.90;;;;;;5112786;27;19924;-60
2022/09/09 06:03:31;;;;;;;;;;;14.30;99.90;;;;;;5097564;28;19939;-60
2022/09/09 06:06:00;;;;;;;;;;;14.30;99.90;;;;;;5092178;28;19924;-61
2022/09/09 06:08:28;;;;;;;;;;;14.30;99.90;;;;;;5086442;28;19935;-60
2022/09/09 06:11:02;;;;;;;;;;;14.30;99.90;;;;;;5072334;28;19924;-60
2022/09/09 06:13:30;;;;;;;;;;;14.30;99.90;;;;;;5086458;28;19935;-63
2022/09/09 06:15:58;;;;;;;;;;;14.40;99.90;;;;;;5109304;28;19930;-59
2022/09/09 06:18:26;;;;;;;;;;;14.40;99.90;;;;;;5088224;28;19928;-59
2022/09/09 06:20:55;;;;;;;;;;;14.50;99.90;;;;;;5088468;28;19928;-59
2022/09/09 06:23:22;;;;;;;;;;;14.50;99.90;;;;;;5093330;28;19931;-59
2022/09/09 06:25:50;;;;;;;;;;;14.50;99.90;;;;;;5108724;28;19924;-59
2022/09/09 06:28:19;;;;;;;;;;;14.60;99.90;;;;;;5080221;28;20379;-59
2022/09/09 06:30:47;;;;;;;;;;;14.60;99.90;;;;;;5108206;28;19924;-60
2022/09/09 06:33:15;;;;;;;;;;;14.60;99.90;;;;;;5091657;28;19932;-60
2022/09/09 06:35:43;;;;;;;;;;;14.70;99.90;;;;;;5083741;28;20387;-60
2022/09/09 06:38:10;;;;;;;;;;;14.70;99.90;;;;;;5071545;28;19924;-59
2022/09/09 06:40:39;;;;;;;;;;;14.80;99.90;;;;;;5083189;28;20057;-60
2022/09/09 06:43:07;;;;;;;;;;;14.90;99.90;;;;;;5079158;28;19928;-60
2022/09/09 06:45:40;;;;;;;;;;;14.90;99.90;;;;;;5073435;28;19936;-61
2022/09/09 06:48:08;;;;;;;;;;;14.90;99.90;;;;;;5077682;28;20335;-61
2022/09/09 06:50:36;;;;;;;;;;;15.00;99.90;;;;;;5088186;28;19924;-60
2022/09/09 06:53:04;;;;;;;;;;;15.00;99.90;;;;;;5092874;28;19930;-60
2022/09/09 06:55:31;;;;;;;;;;;15.10;99.90;;;;;;5074725;28;20390;-59
2022/09/09 06:58:00;;;;;;;;;;;15.10;99.90;;;;;;5076045;28;20279;-59
2022/09/09 07:00:27;;;;;;;;;;;15.20;99.90;;;;;;5103091;28;20260;-61
2022/09/09 07:02:55;;;;;;;;;;;15.20;99.90;;;;;;5077684;28;19932;-60
2022/09/09 07:05:23;;;;;;;;;;;15.30;99.90;;;;;;5085594;28;19935;-60
2022/09/09 07:07:52;;;;;;;;;;;15.30;99.90;;;;;;5074449;28;19923;-60
2022/09/09 07:10:21;;;;;;;;;;;15.30;99.90;;;;;;5060164;28;19924;-61
2022/09/09 07:12:52;;;;;;;;;;;15.40;99.90;;;;;;5073929;28;20422;-62
2022/09/09 07:15:23;;;;;;;;;;;15.40;99.90;;;;;;5085505;28;20481;-61
2022/09/09 07:17:52;;;;;;;;;;;15.50;99.90;;;;;;5073381;28;20083;-61
2022/09/09 07:20:20;;;;;;;;;;;15.60;99.90;;;;;;5071586;28;19925;-62
2022/09/09 07:22:48;;;;;;;;;;;15.60;99.90;;;;;;5080468;28;19928;-62
2022/09/09 07:25:17;;;;;;;;;;;15.70;99.90;;;;;;5072155;28;19928;-61
2022/09/09 07:27:46;;;;;;;;;;;15.70;99.90;;;;;;5093337;28;19931;-59
2022/09/09 07:30:14;;;;;;;;;;;15.80;99.90;;;;;;5079505;28;19935;-59
2022/09/09 07:32:51;;;;;;;;;;;15.80;99.90;;;;;;5070931;28;19942;-61
2022/09/09 07:35:20;;;;;;;;;;;15.90;99.90;;;;;;5085825;28;19935;-61
2022/09/09 07:37:47;;;;;;;;;;;15.90;99.90;;;;;;5086578;28;19928;-58
2022/09/09 07:40:20;;;;;;;;;;;16.00;99.90;;;;;;5088936;28;19935;-59
2022/09/09 07:42:48;;;;;;;;;;;16.00;99.90;;;;;;5089248;28;19928;-59
2022/09/09 07:45:16;;;;;;;;;;;16.10;99.90;;;;;;5081494;28;19935;-59
2022/09/09 07:47:44;;;;;;;;;;;16.10;99.90;;;;;;5087042;28;19932;-60
2022/09/09 07:50:11;;;;;;;;;;;16.20;99.90;;;;;;5087345;28;19938;-60
2022/09/09 07:52:39;;;;;;;;;;;16.30;99.90;;;;;;5085835;28;19951;-60
2022/09/09 07:55:09;;;;;;;;;;;16.40;99.90;;;;;;5083363;28;20519;-60
2022/09/09 07:57:37;;;;;;;;;;;16.50;99.90;;;;;;5085240;28;19924;-59
2022/09/09 08:00:05;;;;;;;;;;;16.50;99.90;;;;;;5083394;28;19944;-59
2022/09/09 08:02:38;;;;;;;;;;;16.50;99.90;;;;;;5080333;28;19924;-60
2022/09/09 08:05:07;;;;;;;;;;;16.50;99.90;;;;;;5087083;28;19928;-61
2022/09/09 08:07:35;;;;;;;;;;;16.50;99.90;;;;;;5085039;28;19950;-61
2022/09/09 08:10:03;;;;;;;;;;;16.50;99.90;;;;;;5088270;28;20290;-61
2022/09/09 08:12:34;;;;;;;;;;;16.60;99.90;;;;;;5075091;28;20304;-61
2022/09/09 08:15:03;;;;;;;;;;;16.70;99.90;;;;;;5067905;28;19929;-61
2022/09/09 08:17:33;;;;;;;;;;;16.70;99.90;;;;;;5067429;28;19931;-62
2022/09/09 08:20:05;;;;;;;;;;;16.70;99.90;;;;;;5068036;28;19950;-61
2022/09/09 08:22:34;;;;;;;;;;;16.80;99.90;;;;;;5081548;28;19931;-61
2022/09/09 08:25:02;;;;;;;;;;;16.90;99.90;;;;;;5089634;28;19924;-60
2022/09/09 08:27:32;;;;;;;;;;;16.90;99.90;;;;;;5090098;28;19931;-61
2022/09/09 08:30:00;;;;;;;;;;;16.90;99.90;;;;;;5085238;28;20407;-62
2022/09/09 08:32:29;;;;;;;;;;;17.00;99.90;;;;;;5104630;28;20401;-62
2022/09/09 08:34:57;;;;;;;;;;;17.00;99.90;;;;;;5105724;28;19931;-61
2022/09/09 08:37:28;;;;;;;;;;;17.10;99.90;;;;;;5086288;28;20371;-60
2022/09/09 08:39:56;;;;;;;;;;;17.20;99.90;;;;;;5074027;28;19928;-62
2022/09/09 08:42:46;;;;;;;;;;;17.20;99.90;;;;;;5093529;28;20406;-60
2022/09/09 08:45:35;;;;;;;;;;;17.30;99.90;;;;;;5090646;28;19931;-61
2022/09/09 08:48:05;;;;;;;;;;;17.30;99.90;;;;;;5078432;28;19924;-62
2022/09/09 08:50:35;;;;;;;;;;;17.40;99.90;;;;;;5084854;28;19928;-61
2022/09/09 08:53:17;;;;;;;;;;;17.50;99.90;;;;;;5076854;28;19924;-60
2022/09/09 08:55:48;;;;;;;;;;;17.50;99.90;;;;;;5072866;28;20290;-61
2022/09/09 08:58:21;;;;;;;;;;;17.60;99.90;;;;;;5091714;28;20391;-61
2022/09/09 09:01:09;;;;;;;;;;;17.60;99.90;;;;;;5092210;28;19930;-62
2022/09/09 09:03:52;;;;;;;;;;;17.70;99.90;;;;;;5095282;28;20421;-63
2022/09/09 09:06:36;;;;;;;;;;;17.80;99.90;;;;;;5083710;28;19924;-62
2022/09/09 09:09:08;;;;;;;;;;;17.80;99.90;;;;;;5092589;28;19924;-60
2022/09/09 09:11:37;;;;;;;;;;;17.80;99.90;;;;;;5092682;28;19934;-62
2022/09/09 09:14:12;;;;;;;;;;;17.90;99.90;;;;;;5100103;28;19938;-61
2022/09/09 09:16:47;;;;;;;;;;;17.90;99.90;;;;;;5092396;28;19924;-60
2022/09/09 09:19:16;;;;;;;;;;;17.90;99.90;;;;;;5091792;28;19939;-60
2022/09/09 09:21:59;;;;;;;;;;;17.90;99.90;;;;;;5081255;28;19938;-61
2022/09/09 09:24:34;;;;;;;;;;;17.90;99.90;;;;;;5085882;27;19927;-60
2022/09/09 09:27:13;;;;;;;;;;;18.00;99.90;;;;;;5113531;27;19950;-60
2022/09/09 09:29:45;;;;;;;;;;;18.00;99.90;;;;;;5086809;27;19923;-60
2022/09/09 09:32:34;;;;;;;;;;;18.10;99.90;;;;;;5097311;28;19935;-62
2022/09/09 09:35:09;;;;;;;;;;;18.10;99.90;;;;;;5106708;28;19947;-61
2022/09/09 09:37:37;;;;;;;;;;;18.30;99.90;;;;;;5071392;28;20355;-62
2022/09/09 09:40:24;;;;;;;;;;;18.30;99.90;;;;;;5075593;28;19943;-61
2022/09/09 09:42:52;;;;;;;;;;;18.40;99.90;;;;;;5080415;28;19931;-62
2022/09/09 09:45:57;;;;;;;;;;;18.50;99.90;;;;;;5091694;28;19931;-62
2022/09/09 09:48:55;;;;;;;;;;;18.70;99.90;;;;;;4972819;28;19936;-61
2022/09/09 09:51:24;;;;;;;;;;;18.80;99.90;;;;;;5085194;28;19931;-61
2022/09/09 09:53:53;;;;;;;;;;;18.80;99.90;;;;;;5109599;28;19927;-62
2022/09/09 09:56:32;;;;;;;;;;;18.90;99.90;;;;;;5108771;28;20014;-61
2022/09/09 09:59:02;;;;;;;;;;;18.90;99.90;;;;;;5105096;27;19923;-61
2022/09/09 10:01:44;;;;;;;;;;;18.90;99.90;;;;;;5070106;28;19931;-61
2022/09/09 10:04:16;;;;;;;;;;;19.10;99.90;;;;;;5081492;28;19927;-61
2022/09/09 10:06:44;;;;;;;;;;;19.10;99.90;;;;;;5070547;28;19924;-62
2022/09/09 10:09:22;;;;;;;;;;;19.10;99.90;;;;;;5086910;28;19935;-61
2022/09/09 10:11:55;;;;;;;;;;;19.10;99.90;;;;;;5086644;28;19935;-61
2022/09/09 10:14:43;;;;;;;;;;;19.00;99.90;;;;;;5100156;28;19935;-61
2022/09/09 10:17:20;;;;;;;;;;;19.20;99.90;;;;;;5041822;28;19928;-59
2022/09/09 10:20:00;;;;;;;;;;;19.00;99.90;;;;;;5066553;28;19925;-59
2022/09/09 10:22:32;;;;;;;;;;;19.00;99.90;;;;;;5069271;28;19931;-60
2022/09/09 10:24:59;;;;;;;;;;;19.00;99.90;;;;;;5059258;28;19932;-60
2022/09/09 10:27:49;;;;;;;;;;;19.10;99.90;;;;;;5052734;28;19936;-59
2022/09/09 10:30:29;;;;;;;;;;;19.20;99.90;;;;;;5069636;28;19925;-60
2022/09/09 10:33:00;;;;;;;;;;;19.20;99.90;;;;;;5068479;28;19936;-59
2022/09/09 10:35:33;;;;;;;;;;;19.30;99.90;;;;;;5069621;28;19924;-61
2022/09/09 10:38:19;;;;;;;;;;;19.50;99.90;;;;;;5067743;28;19924;-63
2022/09/09 10:41:00;;;;;;;;;;;19.60;99.90;;;;;;5067879;28;19928;-61
2022/09/09 10:43:46;;;;;;;;;;;19.70;99.90;;;;;;5068862;28;20318;-61
2022/09/09 10:46:33;;;;;;;;;;;19.80;99.90;;;;;;5067148;28;19931;-62
2022/09/09 10:49:03;;;;;;;;;;;19.90;99.90;;;;;;5068970;28;19932;-61
2022/09/09 10:51:45;;;;;;;;;;;19.90;99.90;;;;;;5068112;28;19928;-59
2022/09/09 10:54:25;;;;;;;;;;;19.90;99.90;;;;;;5067009;28;19930;-60
2022/09/09 10:57:03;;;;;;;;;;;19.90;99.90;;;;;;5049030;28;19936;-62
2022/09/09 10:59:33;;;;;;;;;;;19.80;99.90;;;;;;5046083;28;19924;-62
2022/09/09 11:02:13;;;;;;;;;;;19.70;99.90;;;;;;5047282;28;19928;-59
2022/09/09 11:04:44;;;;;;;;;;;19.60;99.90;;;;;;5066482;28;20287;-62
2022/09/09 11:07:14;;;;;;;;;;;19.50;99.90;;;;;;5068538;28;20287;-62
2022/09/09 11:09:44;;;;;;;;;;;19.50;99.90;;;;;;5064225;28;19925;-62
2022/09/09 11:12:15;;;;;;;;;;;19.50;99.90;;;;;;5057247;28;19929;-62
2022/09/09 11:14:44;;;;;;;;;;;19.60;99.90;;;;;;5066389;28;19924;-61
2022/09/09 11:17:12;;;;;;;;;;;19.90;99.90;;;;;;5050572;28;19924;-63
2022/09/09 11:19:41;;;;;;;;;;;20.20;99.90;;;;;;5086224;28;19924;-61
2022/09/09 11:22:43;;;;;;;;;;;20.50;99.90;;;;;;5075959;28;20377;-62
2022/09/09 11:25:16;;;;;;;;;;;20.70;99.90;;;;;;5060012;28;20335;-61
2022/09/09 11:27:47;;;;;;;;;;;20.70;99.90;;;;;;5074859;28;19936;-61
2022/09/09 11:30:25;;;;;;;;;;;20.70;99.90;;;;;;5088901;28;19928;-61
2022/09/09 11:33:16;;;;;;;;;;;20.70;99.90;;;;;;5083736;28;19931;-62
2022/09/09 11:35:55;;;;;;;;;;;20.80;99.90;;;;;;5084167;28;20387;-61
2022/09/09 11:38:27;;;;;;;;;;;20.90;99.90;;;;;;5078094;28;19925;-62
2022/09/09 11:40:58;;;;;;;;;;;21.00;99.90;;;;;;5086343;28;19924;-63
2022/09/09 11:43:31;;;;;;;;;;;21.10;99.90;;;;;;5078283;28;20295;-62
2022/09/09 11:46:02;;;;;;;;;;;21.20;99.90;;;;;;5085072;28;19935;-61
2022/09/09 11:48:38;;;;;;;;;;;21.40;99.90;;;;;;5083696;28;19928;-63
2022/09/09 11:51:10;;;;;;;;;;;21.60;99.90;;;;;;5085332;28;20524;-61
2022/09/09 11:53:51;;;;;;;;;;;21.70;99.90;;;;;;5083335;28;20383;-62
2022/09/09 11:56:26;;;;;;;;;;;21.80;99.90;;;;;;5069824;28;19925;-62
2022/09/09 11:59:04;;;;;;;;;;;22.00;99.90;;;;;;5081598;28;20311;-62
2022/09/09 12:01:37;;;;;;;;;;;22.00;99.90;;;;;;5105713;28;19924;-61
2022/09/09 12:04:10;;;;;;;;;;;22.20;99.90;;;;;;5086494;28;20299;-61
2022/09/09 12:07:16;;;;;;;;;;;22.20;99.90;;;;;;5085133;28;19924;-62
2022/09/09 12:09:45;;;;;;;;;;;22.20;99.90;;;;;;5061414;28;19931;-61
2022/09/09 12:12:13;;;;;;;;;;;22.10;99.90;;;;;;5063859;28;19925;-62
2022/09/09 12:14:40;;;;;;;;;;;22.20;99.90;;;;;;5081391;28;19932;-61
2022/09/09 12:17:14;;;;;;;;;;;22.20;99.90;;;;;;5088684;28;20326;-61
2022/09/09 12:19:42;;;;;;;;;;;22.30;99.90;;;;;;5108868;28;19928;-61
2022/09/09 12:22:18;;;;;;;;;;;22.30;99.90;;;;;;5090760;28;19952;-61
2022/09/09 12:24:52;;;;;;;;;;;22.50;99.90;;;;;;5108602;28;19953;-61
2022/09/09 12:27:23;;;;;;;;;;;22.70;99.90;;;;;;5072649;28;20034;-61
2022/09/09 12:30:09;;;;;;;;;;;23.30;99.90;;;;;;5119282;27;20393;-61
2022/09/09 12:32:37;;;;;;;;;;;23.70;99.90;;;;;;5129584;27;19927;-62
2022/09/09 12:35:20;;;;;;;;;;;23.90;99.90;;;;;;5109912;27;19924;-62
2022/09/09 12:37:53;;;;;;;;;;;23.70;99.90;;;;;;5108728;28;19924;-61
2022/09/09 12:40:28;;;;;;;;;;;23.60;99.90;;;;;;5105061;28;19924;-61
2022/09/09 12:42:55;;;;;;;;;;;23.50;99.90;;;;;;5095588;28;19931;-61
2022/09/09 12:45:28;;;;;;;;;;;23.50;99.90;;;;;;5109180;28;20302;-61
2022/09/09 12:47:58;;;;;;;;;;;23.60;99.90;;;;;;5090701;28;19930;-62
2022/09/09 12:50:29;;;;;;;;;;;23.50;99.90;;;;;;5108371;28;20310;-61
2022/09/09 12:52:59;;;;;;;;;;;23.50;99.90;;;;;;5096527;27;19931;-62
2022/09/09 12:55:33;;;;;;;;;;;23.40;99.90;;;;;;5105074;28;19928;-60
2022/09/09 12:58:04;;;;;;;;;;;23.70;99.90;;;;;;5095573;28;19924;-62
2022/09/09 13:00:32;;;;;;;;;;;24.20;99.90;;;;;;5124886;27;19938;-62
2022/09/09 13:03:02;;;;;;;;;;;24.90;99.90;;;;;;5108410;27;20515;-61
2022/09/09 13:05:37;;;;;;;;;;;25.40;99.20;;;;;;5073080;28;20291;-61
2022/09/09 13:08:05;;;;;;;;;;;25.80;99.40;;;;;;5107921;28;19930;-62
2022/09/09 13:10:55;;;;;;;;;;;26.40;97.80;;;;;;5086608;28;19932;-62
2022/09/09 13:13:42;;;;;;;;;;;27.00;97.90;;;;;;5081515;28;20398;-61
2022/09/09 13:16:35;;;;;;;;;;;26.90;96.70;;;;;;5108228;28;19997;-62
2022/09/09 13:19:16;;;;;;;;;;;26.30;97.20;;;;;;5106356;28;19923;-61
2022/09/09 13:21:43;;;;;;;;;;;25.10;97.20;;;;;;5108312;28;19924;-62
2022/09/09 13:24:30;;;;;;;;;;;24.00;98.30;;;;;;5094741;28;19935;-61
2022/09/09 13:27:01;;;;;;;;;;;23.00;99.80;;;;;;5069527;28;19924;-61
2022/09/09 13:29:30;;;;;;;;;;;21.80;99.90;;;;;;5095591;27;19930;-61
2022/09/09 13:32:15;;;;;;;;;;;21.00;99.90;;;;;;5090134;27;20407;-60
2022/09/09 13:34:53;;;;;;;;;;;20.40;99.90;;;;;;5087577;28;19931;-60
2022/09/09 13:37:27;;;;;;;;;;;19.80;99.90;;;;;;5092891;28;19923;-61
2022/09/09 13:39:54;;;;;;;;;;;19.40;99.90;;;;;;5111245;28;19955;-62
2022/09/09 13:42:27;;;;;;;;;;;19.00;99.90;;;;;;5093023;28;19924;-61
2022/09/09 13:44:55;;;;;;;;;;;18.80;99.90;;;;;;5106352;27;19931;-61
2022/09/09 13:47:31;;;;;;;;;;;18.50;99.90;;;;;;5091621;28;20506;-60
2022/09/09 13:50:09;;;;;;;;;;;18.30;99.90;;;;;;5110100;28;19934;-60
2022/09/09 13:52:37;;;;;;;;;;;18.20;99.90;;;;;;5110541;28;20539;-59
2022/09/09 13:55:06;;;;;;;;;;;18.10;99.90;;;;;;5092014;28;20358;-60
2022/09/09 13:57:34;;;;;;;;;;;17.90;99.90;;;;;;5110080;28;20378;-57
2022/09/09 14:00:01;;;;;;;;;;;17.80;99.90;;;;;;5106801;27;19923;-57
2022/09/09 14:02:33;;;;;;;;;;;17.70;99.90;;;;;;5105805;28;19935;-57
2022/09/09 14:05:01;;;;;;;;;;;17.60;99.90;;;;;;5110668;28;19923;-57
2022/09/09 14:07:28;;;;;;;;;;;17.60;99.90;;;;;;5107925;28;20266;-57
2022/09/09 14:09:56;;;;;;;;;;;17.50;99.90;;;;;;5107219;28;19943;-58
2022/09/09 14:12:23;;;;;;;;;;;17.50;99.90;;;;;;5109571;28;19946;-58
2022/09/09 14:14:51;;;;;;;;;;;17.50;99.90;;;;;;5110172;27;19924;-60
2022/09/09 14:17:18;;;;;;;;;;;17.40;99.90;;;;;;5091272;28;19924;-60
2022/09/09 14:19:46;;;;;;;;;;;17.40;99.90;;;;;;5092478;28;19924;-61
2022/09/09 14:22:14;;;;;;;;;;;17.40;99.90;;;;;;5109894;28;20406;-59
2022/09/09 14:24:45;;;;;;;;;;;17.40;99.90;;;;;;5110116;28;19923;-60
2022/09/09 14:27:13;;;;;;;;;;;17.40;99.90;;;;;;5092008;28;19928;-61
2022/09/09 14:29:40;;;;;;;;;;;17.40;99.90;;;;;;5107570;27;20248;-60
2022/09/09 14:32:08;;;;;;;;;;;17.40;99.90;;;;;;5089722;28;20410;-60
2022/09/09 14:34:39;;;;;;;;;;;17.40;99.90;;;;;;5091469;28;19924;-60
2022/09/09 14:37:06;;;;;;;;;;;17.40;99.90;;;;;;5109285;28;19924;-60
2022/09/09 14:39:34;;;;;;;;;;;17.40;99.90;;;;;;5089792;28;20291;-60
2022/09/09 14:42:02;;;;;;;;;;;17.40;99.90;;;;;;5090054;28;19923;-61
2022/09/09 14:44:29;;;;;;;;;;;17.50;99.90;;;;;;5108861;27;19940;-59
2022/09/09 14:46:58;;;;;;;;;;;17.50;99.90;;;;;;5086273;28;19924;-62